createdAt,value
2023-03-05T00:03:23.908Z,77.64
2023-03-05T00:07:26.612Z,77.62
2023-03-05T00:11:30.768Z,78.08
2023-03-05T00:15:33.353Z,77.63
2023-03-05T00:19:37.297Z,77.78
2023-03-05T00:23:39.915Z,77.64
2023-03-05T00:27:42.501Z,77.76
2023-03-05T00:31:45.358Z,77.56
2023-03-05T00:35:49.273Z,77.76
2023-03-05T00:39:51.882Z,78.29
2023-03-05T00:43:54.466Z,78.21
2023-03-05T00:47:57.131Z,78.29
2023-03-05T00:52:01.045Z,78.38
2023-03-05T00:56:03.665Z,78.40
2023-03-05T01:00:07.792Z,78.62
2023-03-05T01:04:10.598Z,78.14
2023-03-05T01:08:15.470Z,78.29
2023-03-05T01:12:18.078Z,78.26
2023-03-05T01:16:20.758Z,78.74
2023-03-05T01:20:24.220Z,78.64
2023-03-05T01:24:28.229Z,79.39
2023-03-05T01:28:31.014Z,79.11
2023-03-05T01:32:34.863Z,78.76
2023-03-05T01:36:38.331Z,79.20
2023-03-05T01:40:42.886Z,79.25
2023-03-05T01:45:01.265Z,79.28
2023-03-05T01:49:15.593Z,79.30
2023-03-05T01:53:18.544Z,79.32
2023-03-05T01:57:26.640Z,79.37
2023-03-05T02:01:29.316Z,79.32
2023-03-05T02:05:33.758Z,79.26
2023-03-05T02:09:39.310Z,79.73
2023-03-05T02:13:43.306Z,79.93
2023-03-05T02:17:46.298Z,79.94
2023-03-05T02:21:50.910Z,80.23
2023-03-05T02:25:53.661Z,79.99
2023-03-05T02:29:56.375Z,80.37
2023-03-05T02:33:59.050Z,80.16
2023-03-05T02:38:03.029Z,80.45
2023-03-05T02:42:05.792Z,80.18
2023-03-05T02:46:08.970Z,80.72
2023-03-05T02:50:13.108Z,81.16
2023-03-05T02:54:17.085Z,80.73
2023-03-05T02:58:19.868Z,81.11
2023-03-05T03:02:22.655Z,81.09
2023-03-05T03:06:25.327Z,80.93
2023-03-05T03:10:29.324Z,80.83
2023-03-05T03:14:32.966Z,81.22
2023-03-05T03:18:35.690Z,81.39
2023-03-05T03:22:38.455Z,81.80
2023-03-05T03:26:42.497Z,81.99
2023-03-05T03:30:45.272Z,82.04
2023-03-05T03:34:48.108Z,81.71
2023-03-05T03:38:50.731Z,82.28
2023-03-05T03:42:54.797Z,82.25
2023-03-05T03:46:57.456Z,82.16
2023-03-05T03:51:00.098Z,82.52
2023-03-05T03:55:02.745Z,82.39
2023-03-05T03:59:06.885Z,82.72
2023-03-05T04:03:09.660Z,83.00
2023-03-05T04:07:12.398Z,82.57
2023-03-05T04:11:15.945Z,82.61
2023-03-05T04:15:19.995Z,82.84
2023-03-05T04:19:22.668Z,82.66
2023-03-05T04:23:25.375Z,83.56
2023-03-05T04:27:28.102Z,83.40
2023-03-05T04:31:32.183Z,83.13
2023-03-05T04:35:34.874Z,83.34
2023-03-05T04:39:37.656Z,83.78
2023-03-05T04:43:40.501Z,84.03
2023-03-05T04:47:44.565Z,83.69
2023-03-05T04:51:47.205Z,84.13
2023-03-05T04:55:53.750Z,84.13
2023-03-05T04:59:56.565Z,84.45
2023-03-05T05:04:00.489Z,84.32
2023-03-05T05:08:03.136Z,84.35
2023-03-05T05:12:06.249Z,84.50
2023-03-05T05:16:09.781Z,84.47
2023-03-05T05:20:16.085Z,84.52
2023-03-05T05:24:18.712Z,84.52
2023-03-05T05:28:21.417Z,84.16
2023-03-05T05:32:25.211Z,84.56
2023-03-05T05:36:29.377Z,84.47
2023-03-05T05:40:32.009Z,84.69
2023-03-05T05:44:34.959Z,84.47
2023-03-05T05:48:38.295Z,84.22
2023-03-05T05:52:42.239Z,84.27
2023-03-05T05:56:44.865Z,84.41
2023-03-05T06:00:47.539Z,84.49
2023-03-05T06:04:50.162Z,84.67
2023-03-05T06:08:54.912Z,84.35
2023-03-05T06:12:57.588Z,84.15
2023-03-05T06:17:00.219Z,84.19
2023-03-05T06:21:04.573Z,92.44
2023-03-05T06:25:10.166Z,91.30
2023-03-05T06:29:12.869Z,88.82
2023-03-05T06:33:15.504Z,84.40
2023-03-05T06:37:18.194Z,82.40
2023-03-05T06:41:23.822Z,83.54
2023-03-05T06:45:26.441Z,83.71
2023-03-05T06:49:29.136Z,83.56
2023-03-05T06:53:31.939Z,84.29
2023-03-05T06:57:35.909Z,84.35
2023-03-05T07:01:38.676Z,84.19
2023-03-05T07:05:42.474Z,84.14
2023-03-05T07:09:45.963Z,83.81
2023-03-05T07:13:50.062Z,84.10
2023-03-05T07:17:52.684Z,83.78
2023-03-05T07:21:55.293Z,84.00
2023-03-05T07:25:58.132Z,83.76
2023-03-05T07:30:02.419Z,83.90
2023-03-05T07:34:06.601Z,83.64
2023-03-05T07:38:09.249Z,83.81
2023-03-05T07:42:11.886Z,83.47
2023-03-05T07:46:17.928Z,83.35
2023-03-05T07:50:20.858Z,83.23
2023-03-05T07:54:23.866Z,82.74
2023-03-05T07:58:26.585Z,82.99
2023-03-05T08:02:30.511Z,82.80
2023-03-05T08:06:33.314Z,82.54
2023-03-05T08:10:36.782Z,82.44
2023-03-05T08:14:39.524Z,82.35
2023-03-05T08:18:43.827Z,82.10
2023-03-05T08:22:46.757Z,82.15
2023-03-05T08:26:49.433Z,82.10
2023-03-05T08:30:52.213Z,82.21
2023-03-05T08:34:58.890Z,81.94
2023-03-05T08:39:01.657Z,82.03
2023-03-05T08:43:05.836Z,81.55
2023-03-05T08:47:08.536Z,81.16
2023-03-05T08:51:14.102Z,80.91
2023-03-05T08:55:17.512Z,79.76
2023-03-05T08:59:20.170Z,80.73
2023-03-05T09:03:23.151Z,84.00
2023-03-05T09:07:27.194Z,79.76
2023-03-05T09:11:29.832Z,80.26
2023-03-05T09:15:32.645Z,80.75
2023-03-05T09:19:35.317Z,80.50
2023-03-05T09:23:39.904Z,80.16
2023-03-05T09:27:43.841Z,80.41
2023-03-05T09:31:48.636Z,79.99
2023-03-05T09:35:51.486Z,79.94
2023-03-05T09:39:56.083Z,79.82
2023-03-05T09:44:08.842Z,79.96
2023-03-05T09:48:18.666Z,79.43
2023-03-05T09:52:24.652Z,78.79
2023-03-05T09:56:32.148Z,78.09
2023-03-05T10:00:39.529Z,78.04
2023-03-05T10:04:46.258Z,77.96
2023-03-05T10:08:55.735Z,77.88
2023-03-05T10:13:03.162Z,77.70
2023-03-05T10:17:41.918Z,77.64
2023-03-05T10:21:54.779Z,77.19
2023-03-05T10:26:13.229Z,76.76
2023-03-05T10:30:30.933Z,77.16
2023-03-05T10:34:50.245Z,76.39
2023-03-05T10:39:07.661Z,76.59
2023-03-05T10:43:22.847Z,76.11
2023-03-05T10:47:31.014Z,75.88
2023-03-05T10:51:38.823Z,75.37
2023-03-05T10:55:41.689Z,74.83
2023-03-05T10:59:49.675Z,74.92
2023-03-05T11:03:57.740Z,74.52
2023-03-05T11:08:00.525Z,74.38
2023-03-05T11:12:13.308Z,74.52
2023-03-05T11:16:21.076Z,74.53
2023-03-05T11:20:35.705Z,74.92
2023-03-05T11:24:39.706Z,74.97
2023-03-05T11:28:58.394Z,75.28
2023-03-05T11:33:14.740Z,74.60
2023-03-05T11:37:25.560Z,74.58
2023-03-05T11:41:36.685Z,74.22
2023-03-05T11:45:40.088Z,73.47
2023-03-05T11:49:47.341Z,73.27
2023-03-05T11:53:56.736Z,73.59
2023-03-05T11:58:13.151Z,73.14
2023-03-05T12:02:20.415Z,73.16
2023-03-05T12:06:30.594Z,73.58
2023-03-05T12:10:34.929Z,73.13
2023-03-05T12:14:43.271Z,72.69
2023-03-05T12:18:53.581Z,71.15
2023-03-05T12:22:58.452Z,69.45
2023-03-05T12:27:15.852Z,69.15
2023-03-05T12:31:29.297Z,69.14
2023-03-05T12:35:38.075Z,69.12
2023-03-05T12:39:58.250Z,69.79
2023-03-05T12:44:23.599Z,70.02
2023-03-05T12:48:44.017Z,70.22
2023-03-05T12:52:47.351Z,71.19
2023-03-05T12:56:51.624Z,70.71
2023-03-05T13:01:03.728Z,70.91
2023-03-05T13:05:18.572Z,71.05
2023-03-05T13:09:27.673Z,71.06
2023-03-05T13:13:34.317Z,71.13
2023-03-05T13:17:41.522Z,71.29
2023-03-05T13:21:44.164Z,72.00
2023-03-05T13:25:57.255Z,71.77
2023-03-05T13:29:59.717Z,71.83
2023-03-05T13:34:12.302Z,71.31
2023-03-05T13:38:25.534Z,70.10
2023-03-05T13:42:31.274Z,67.73
2023-03-05T13:46:35.850Z,68.44
2023-03-05T13:50:41.723Z,68.23
2023-03-05T13:54:44.348Z,68.44
2023-03-05T13:58:53.398Z,68.82
2023-03-05T14:02:59.741Z,69.50
2023-03-05T14:07:06.748Z,69.08
2023-03-05T14:11:15.311Z,69.61
2023-03-05T14:15:23.267Z,67.94
2023-03-05T14:19:35.521Z,68.56
2023-03-05T14:23:43.096Z,68.22
2023-03-05T14:27:48.760Z,68.19
2023-03-05T14:31:54.641Z,67.22
2023-03-05T14:35:58.576Z,70.54
2023-03-05T14:40:06.458Z,70.28
2023-03-05T14:44:17.137Z,68.99
2023-03-05T14:48:19.888Z,67.31
2023-03-05T14:52:25.086Z,64.41
2023-03-05T14:56:29.819Z,64.58
2023-03-05T15:00:32.770Z,65.00
2023-03-05T15:04:35.364Z,65.03
2023-03-05T15:08:38.030Z,65.09
2023-03-05T15:12:44.177Z,64.50
2023-03-05T15:16:47.764Z,63.97
2023-03-05T15:20:52.900Z,63.94
2023-03-05T15:24:55.576Z,64.13
2023-03-05T15:28:59.721Z,66.28
2023-03-05T15:33:05.013Z,77.96
2023-03-05T15:37:08.492Z,59.20
2023-03-05T15:41:11.160Z,60.50
2023-03-05T15:45:15.377Z,62.51
2023-03-05T15:49:19.008Z,63.70
2023-03-05T15:53:23.210Z,63.90
2023-03-05T15:57:26.501Z,63.34
2023-03-05T16:01:30.881Z,63.11
2023-03-05T16:05:34.955Z,63.56
2023-03-05T16:09:41.557Z,63.95
2023-03-05T16:13:44.500Z,64.11
2023-03-05T16:17:51.253Z,64.01
2023-03-05T16:21:53.793Z,63.98
2023-03-05T16:25:58.609Z,64.29
2023-03-05T16:30:01.432Z,64.45
2023-03-05T16:34:05.863Z,64.51
2023-03-05T16:38:08.505Z,64.73
2023-03-05T16:42:12.961Z,64.89
2023-03-05T16:46:16.024Z,64.78
2023-03-05T16:50:20.227Z,65.10
2023-03-05T16:54:32.443Z,64.64
2023-03-05T16:58:37.177Z,65.18
2023-03-05T17:02:40.907Z,64.71
2023-03-05T17:06:49.526Z,64.90
2023-03-05T17:10:52.509Z,65.15
2023-03-05T17:14:55.231Z,65.06
2023-03-05T17:18:58.330Z,65.32
2023-03-05T17:23:03.949Z,65.88
2023-03-05T17:27:06.833Z,65.80
2023-03-05T17:31:09.690Z,65.94
2023-03-05T17:35:18.898Z,66.41
2023-03-05T17:39:28.743Z,65.70
2023-03-05T17:43:31.419Z,65.78
2023-03-05T17:47:34.507Z,66.01
2023-03-05T17:51:37.818Z,65.97
2023-03-05T17:55:43.021Z,66.74
2023-03-05T17:59:46.062Z,67.22
2023-03-05T18:03:48.709Z,66.89
2023-03-05T18:07:51.869Z,66.69
2023-03-05T18:11:55.884Z,68.79
2023-03-05T18:15:59.581Z,69.79
2023-03-05T18:20:03.983Z,68.75
2023-03-05T18:24:07.853Z,69.24
2023-03-05T18:28:15.537Z,70.40
2023-03-05T18:32:18.258Z,71.68
2023-03-05T18:36:20.993Z,68.35
2023-03-05T18:40:29.910Z,68.19
2023-03-05T18:44:35.497Z,68.43
2023-03-05T18:48:39.664Z,68.77
2023-03-05T18:52:42.542Z,68.58
2023-03-05T18:56:45.776Z,69.33
2023-03-05T19:00:50.019Z,68.93
2023-03-05T19:04:52.773Z,69.10
2023-03-05T19:08:58.594Z,69.24
2023-03-05T19:13:15.721Z,69.52
2023-03-05T19:17:19.751Z,69.85
2023-03-05T19:21:22.466Z,69.22
2023-03-05T19:25:25.203Z,69.70
2023-03-05T19:29:37.572Z,70.18
2023-03-05T19:33:41.772Z,70.05
2023-03-05T19:37:45.889Z,70.01
2023-03-05T19:41:49.726Z,70.06
2023-03-05T19:45:53.348Z,69.99
2023-03-05T19:49:57.448Z,70.35
2023-03-05T19:54:00.755Z,70.44
2023-03-05T19:58:03.487Z,70.44
2023-03-05T20:02:10.921Z,70.19
2023-03-05T20:06:17.683Z,69.84
2023-03-05T20:10:20.901Z,70.27
2023-03-05T20:14:23.543Z,70.61
2023-03-05T20:18:28.605Z,70.96
2023-03-05T20:22:34.375Z,71.41
2023-03-05T20:26:39.324Z,71.85
2023-03-05T20:30:43.860Z,71.85
2023-03-05T20:34:46.533Z,72.14
2023-03-05T20:38:50.718Z,72.14
2023-03-05T20:42:53.337Z,72.22
2023-03-05T20:47:10.301Z,72.42
2023-03-05T20:51:14.299Z,72.69
2023-03-05T20:55:18.288Z,73.11
2023-03-05T20:59:23.226Z,73.00
2023-03-05T21:03:25.863Z,73.00
2023-03-05T21:07:29.682Z,72.96
2023-03-05T21:11:35.594Z,73.01
2023-03-05T21:15:41.332Z,73.03
2023-03-05T21:19:43.945Z,73.70
2023-03-05T21:23:47.040Z,73.90
2023-03-05T21:27:54.740Z,74.18
2023-03-05T21:31:58.402Z,74.44
2023-03-05T21:36:01.091Z,74.78
2023-03-05T21:40:04.620Z,74.86
2023-03-05T21:44:10.613Z,75.25
2023-03-05T21:48:14.767Z,74.86
2023-03-05T21:52:17.564Z,75.00
2023-03-05T21:56:25.106Z,75.27
2023-03-05T22:00:29.489Z,75.40
2023-03-05T22:04:32.300Z,75.15
2023-03-05T22:08:34.886Z,75.04
2023-03-05T22:12:51.460Z,74.74
2023-03-05T22:16:57.176Z,75.24
2023-03-05T22:21:00.752Z,75.66
2023-03-05T22:25:04.188Z,76.05
2023-03-05T22:29:09.171Z,75.66
2023-03-05T22:33:13.756Z,76.40
2023-03-05T22:37:16.411Z,76.40
2023-03-05T22:41:20.655Z,76.28
2023-03-05T22:45:23.337Z,75.66
2023-03-05T22:49:27.273Z,75.94
2023-03-05T22:53:30.276Z,75.72
2023-03-05T22:57:34.425Z,75.96
2023-03-05T23:01:37.069Z,75.98
2023-03-05T23:05:41.177Z,76.39
2023-03-05T23:09:43.902Z,76.41
2023-03-05T23:13:46.573Z,76.16
2023-03-05T23:17:49.233Z,76.39
2023-03-05T23:21:53.172Z,76.47
2023-03-05T23:25:55.815Z,76.73
2023-03-05T23:30:08.943Z,76.72
2023-03-05T23:34:11.510Z,76.90
2023-03-05T23:38:15.611Z,77.03
2023-03-05T23:42:18.216Z,77.44
2023-03-05T23:46:20.895Z,77.62
2023-03-05T23:50:25.556Z,77.58
2023-03-05T23:54:29.545Z,78.01
2023-03-05T23:58:32.160Z,77.88
